Time;durP1;ratioP1;P1;durP2;ratioP2;P2;SDS_P1;SDS_P2;PMS_P1;PMS_P2;Temp;Humidity;BMP_temperature;BMP_pressure;BME280_temperature;BME280_humidity;BME280_pressure;Samples;Min_cycle;Max_cycle;Signal;HPM_P1;HPM_P2
2023/08/23 03:20:04;;;;;;;3.50;2.30;;;;;;;18.11;100.00;99725.98;101405;1296;601596;-58
2023/08/23 03:22:33;;;;;;;3.00;2.40;;;;;;;18.40;100.00;99722.86;103630;1267;60919;-58
2023/08/23 03:25:01;;;;;;;4.40;2.10;;;;;;;18.36;100.00;99718.02;103691;1271;59710;-58
2023/08/23 03:27:28;;;;;;;2.40;2.20;;;;;;;18.33;100.00;99713.58;103547;1288;71945;-59
2023/08/23 03:29:56;;;;;;;;;;;;;;;18.31;100.00;99710.70;104022;1280;68381;-60
2023/08/23 03:32:25;;;;;;;3.60;2.70;;;;;;;18.30;100.00;99708.31;107532;1260;72536;-61
2023/08/23 03:34:52;;;;;;;3.50;2.20;;;;;;;18.30;100.00;99713.82;107791;1255;217146;-59
2023/08/23 03:37:20;;;;;;;2.90;2.20;;;;;;;18.22;100.00;99718.25;105223;1260;60085;-58
2023/08/23 03:39:48;;;;;;;4.20;2.60;;;;;;;18.20;100.00;99726.56;104306;1261;72912;-56
2023/08/23 03:42:17;;;;;;;4.30;2.30;;;;;;;18.15;100.00;99732.98;104304;1257;70094;-58
2023/08/23 03:44:45;;;;;;;9.90;2.90;;;;;;;18.07;100.00;99726.24;104125;1276;72663;-59
2023/08/23 03:47:14;;;;;;;4.00;2.70;;;;;;;18.07;100.00;99713.18;104299;1274;61792;-59
2023/08/23 03:49:42;;;;;;;4.00;2.60;;;;;;;18.12;100.00;99701.27;104193;1270;59740;-58
2023/08/23 03:52:10;;;;;;;4.80;2.20;;;;;;;18.22;100.00;99697.19;104185;1273;72183;-59
2023/08/23 03:54:37;;;;;;;;;;;;;;;18.34;100.00;99705.38;104368;1264;69374;-59
2023/08/23 03:57:06;;;;;;;4.80;2.30;;;;;;;18.44;100.00;99710.29;104061;1279;72487;-59
2023/08/23 03:59:33;;;;;;;;;;;;;;;18.48;100.00;99725.03;104271;1261;61873;-58
2023/08/23 04:02:01;;;;;;;4.20;2.40;;;;;;;18.50;100.00;99729.69;104450;1261;59649;-58
2023/08/23 04:04:29;;;;;;;2.60;2.10;;;;;;;18.51;100.00;99730.00;104287;1257;73366;-58
2023/08/23 04:06:57;;;;;;;;;;;;;;;18.53;100.00;99721.16;104176;1260;69171;-56
2023/08/23 04:09:25;;;;;;;3.00;2.20;;;;;;;18.58;100.00;99717.36;104194;1257;72887;-58
2023/08/23 04:11:53;;;;;;;2.00;1.70;;;;;;;18.65;100.00;99717.91;104313;1260;61627;-56
2023/08/23 04:14:21;;;;;;;6.00;2.20;;;;;;;18.75;100.00;99713.29;104099;1267;60466;-56
2023/08/23 04:16:48;;;;;;;2.20;2.00;;;;;;;18.90;100.00;99705.45;103987;1258;73714;-57
2023/08/23 04:19:16;;;;;;;3.60;1.70;;;;;;;19.03;100.00;99701.10;103820;1281;70104;-57
2023/08/23 04:21:46;;;;;;;3.40;2.20;;;;;;;19.16;100.00;99702.04;103709;1281;72408;-57
2023/08/23 04:24:15;;;;;;;3.40;2.60;;;;;;;19.25;100.00;99691.93;104056;1273;61607;-58
2023/08/23 04:26:43;;;;;;;2.70;2.20;;;;;;;19.41;100.00;99697.61;103847;1277;60009;-57
2023/08/23 04:29:11;;;;;;;4.20;2.60;;;;;;;19.53;100.00;99697.38;104137;1264;73031;-58
2023/08/23 04:31:39;;;;;;;5.10;2.80;;;;;;;19.63;100.00;99699.26;103929;1280;69107;-57
2023/08/23 04:34:12;;;;;;;3.80;2.60;;;;;;;19.72;100.00;99701.88;103979;1280;72883;-56
2023/08/23 04:36:40;;;;;;;;;;;;;;;19.82;100.00;99710.52;103917;1263;61372;-57
2023/08/23 04:39:07;;;;;;;4.50;2.20;;;;;;;19.91;100.00;99713.91;103798;1268;59737;-56
2023/08/23 04:41:35;;;;;;;5.10;2.50;;;;;;;19.94;100.00;99709.75;104105;1263;72716;-57
2023/08/23 04:44:04;;;;;;;4.80;2.40;;;;;;;19.98;100.00;99708.91;104252;1278;69320;-57
2023/08/23 04:46:31;;;;;;;;;;;;;;;19.98;100.00;99711.53;104403;1260;72438;-56
2023/08/23 04:49:00;;;;;;;2.60;2.10;;;;;;;19.99;100.00;99721.60;106341;1256;61353;-57
2023/08/23 04:51:28;;;;;;;;;;;;;;;19.99;100.00;99720.35;105463;1256;59938;-57
2023/08/23 04:53:55;;;;;;;;;;;;;;;19.99;100.00;99722.33;104422;1255;72835;-58
2023/08/23 04:56:23;;;;;;;;;;;;;;;19.98;100.00;99717.62;104801;1254;68131;-58
2023/08/23 04:58:51;;;;;;;3.30;1.80;;;;;;;20.02;100.00;99714.29;104278;1261;73418;-59
2023/08/23 05:01:19;;;;;;;7.50;2.80;;;;;;;20.08;100.00;99715.55;104592;1259;61767;-59
2023/08/23 05:03:48;;;;;;;6.40;1.90;;;;;;;20.16;100.00;99716.91;104254;1260;60055;-58
2023/08/23 05:06:16;;;;;;;;;;;;;;;20.26;100.00;99723.84;104490;1257;73508;-58
2023/08/23 05:08:44;;;;;;;4.00;2.00;;;;;;;20.37;100.00;99731.84;104624;1254;69230;-58
2023/08/23 05:11:15;;;;;;;3.30;2.10;;;;;;;20.47;100.00;99728.02;104281;1260;71378;-58
2023/08/23 05:13:44;;;;;;;4.60;1.80;;;;;;;20.59;100.00;99722.66;105630;1255;61432;-58
2023/08/23 05:16:13;;;;;;;5.00;2.10;;;;;;;20.73;100.00;99718.96;104454;1254;60077;-58
2023/08/23 05:18:41;;;;;;;;;;;;;;;20.82;100.00;99715.93;104573;1273;73092;-58
2023/08/23 05:21:09;;;;;;;3.30;1.60;;;;;;;20.90;100.00;99718.30;104725;1255;69933;-57
2023/08/23 05:23:36;;;;;;;;;;;;;;;20.95;100.00;99722.05;104340;1275;72929;-57
2023/08/23 05:26:06;;;;;;;4.20;1.50;;;;;;;21.06;100.00;99722.04;104617;1259;62364;-58
2023/08/23 05:37:23;;;;;;;2.20;1.30;;;;;;;21.58;100.00;99726.50;104379;1290;600820;-58
2023/08/23 05:39:52;;;;;;;2.00;1.40;;;;;;;21.68;100.00;99729.39;104163;1267;60500;-57
2023/08/23 05:42:20;;;;;;;6.30;1.20;;;;;;;21.77;100.00;99724.34;103865;1280;59752;-57
2023/08/23 05:44:47;;;;;;;2.00;1.40;;;;;;;21.86;100.00;99722.99;103573;1288;72475;-57
2023/08/23 15:36:38;;;;;;;3.60;1.30;;;;;;;30.11;40.58;99471.80;101867;1288;602024;-58
2023/08/23 15:39:06;;;;;;;3.70;1.30;;;;;;;30.45;39.00;99473.76;103695;1268;60823;-56
2023/08/23 15:41:34;;;;;;;3.90;1.70;;;;;;;30.36;39.40;99470.39;103744;1264;59717;-56
2023/08/23 15:44:04;;;;;;;2.30;1.70;;;;;;;30.16;39.79;99478.70;103769;1266;71881;-57
2023/08/23 15:46:32;;;;;;;3.90;1.50;;;;;;;30.00;40.12;99482.52;103682;1266;69195;-56
2023/08/23 15:49:00;;;;;;;4.40;1.40;;;;;;;29.84;40.45;99479.19;103591;1271;72530;-57
2023/08/23 15:51:30;;;;;;;2.60;1.50;;;;;;;29.63;41.57;99482.78;103785;1277;60462;-58
2023/08/23 15:53:58;;;;;;;6.00;1.80;;;;;;;29.45;41.59;99482.98;103957;1264;59394;-57
2023/08/23 15:56:25;;;;;;;;;;;;;;;29.33;41.28;99480.17;103934;1269;71818;-59
2023/08/23 15:58:53;;;;;;;6.80;1.70;;;;;;;29.20;42.27;99481.78;104013;1261;70134;-58
2023/08/23 16:01:21;;;;;;;3.10;1.40;;;;;;;29.07;42.30;99481.77;103806;1265;72837;-57
2023/08/23 16:03:49;;;;;;;8.60;1.80;;;;;;;29.02;42.17;99485.55;103962;1264;59829;-58
2023/08/23 16:06:16;;;;;;;;;;;;;;;28.93;42.73;99482.17;104035;1263;59756;-58
2023/08/23 16:08:44;;;;;;;4.00;1.50;;;;;;;28.79;42.82;99487.90;104242;1257;72731;-57
2023/08/23 16:11:12;;;;;;;7.50;1.90;;;;;;;28.60;43.43;99487.47;104042;1278;68449;-57
2023/08/23 16:13:40;;;;;;;2.90;1.90;;;;;;;28.46;43.39;99486.38;104142;1266;72466;-57
2023/08/23 16:16:07;;;;;;;5.30;2.40;;;;;;;28.36;43.38;99484.88;104352;1257;59822;-57
2023/08/23 16:18:35;;;;;;;4.80;2.40;;;;;;;28.25;44.51;99488.13;104167;1263;59752;-56
2023/08/23 16:21:03;;;;;;;3.00;2.10;;;;;;;28.14;44.92;99486.25;104337;1257;73257;-57
2023/08/23 16:23:31;;;;;;;7.70;3.10;;;;;;;28.03;45.60;99488.79;104322;1261;69587;-57
2023/08/23 16:26:01;;;;;;;;;;;;;;;27.93;46.23;99490.11;104174;1263;72506;-58
2023/08/23 16:28:29;;;;;;;5.00;3.20;;;;;;;27.82;46.38;99490.97;104526;1257;59680;-58
2023/08/23 16:30:58;;;;;;;6.20;3.20;;;;;;;27.65;46.73;99488.05;104216;1255;60330;-58
2023/08/23 16:33:26;;;;;;;6.50;3.90;;;;;;;27.50;47.52;99493.92;104174;1260;73676;-57
2023/08/23 16:35:54;;;;;;;11.70;4.90;;;;;;;27.35;48.14;99493.81;104251;1261;69088;-57
2023/08/23 16:38:24;;;;;;;8.20;5.20;;;;;;;27.21;49.21;99501.63;104122;1263;72394;-57
2023/08/23 16:40:55;;;;;;;5.60;4.50;;;;;;;27.07;49.51;99502.87;104086;1273;59848;-58
2023/08/23 16:43:23;;;;;;;7.00;4.70;;;;;;;26.97;50.08;99507.92;104205;1257;59759;-58
2023/08/23 16:45:51;;;;;;;6.90;4.60;;;;;;;26.85;50.33;99506.42;104134;1273;71907;-61
2023/08/23 16:48:19;;;;;;;;;;;;;;;26.74;50.34;99507.48;104096;1275;69600;-58
2023/08/23 16:50:47;;;;;;;13.00;4.40;;;;;;;26.63;51.93;99514.62;103965;1263;72375;-57
2023/08/23 16:53:14;;;;;;;;;;;;;;;26.55;51.36;99516.36;104143;1257;59944;-57
2023/08/23 16:55:43;;;;;;;;;;;;;;;26.42;52.48;99520.30;107388;1258;59823;-58
2023/08/23 16:58:10;;;;;;;4.60;3.20;;;;;;;26.29;53.64;99526.48;107693;1257;73421;-58
2023/08/23 17:00:38;;;;;;;5.50;2.90;;;;;;;26.20;54.00;99528.71;107675;1257;68490;-58
2023/08/23 17:03:08;;;;;;;5.20;3.20;;;;;;;26.10;54.68;99534.64;107600;1257;72854;-58
2023/08/23 17:05:37;;;;;;;10.50;2.90;;;;;;;26.01;56.09;99538.17;107695;1257;60237;-58
2023/08/23 17:08:06;;;;;;;7.30;2.60;;;;;;;25.96;56.94;99539.61;107704;1258;59704;-58
2023/08/23 17:10:34;;;;;;;6.40;2.70;;;;;;;25.88;57.85;99541.02;105107;1258;73650;-58
2023/08/23 17:13:02;;;;;;;5.50;2.20;;;;;;;25.79;58.98;99544.59;104210;1273;69100;-58
2023/08/23 17:15:30;;;;;;;9.30;2.50;;;;;;;25.72;59.58;99544.48;104122;1260;72502;-57
2023/08/23 17:17:57;;;;;;;6.30;2.50;;;;;;;25.64;61.32;99543.36;104277;1260;59793;-57
2023/08/23 17:20:26;;;;;;;;;;;;;;;25.58;62.38;99546.70;104004;1257;59768;-57
2023/08/23 17:22:53;;;;;;;9.10;2.50;;;;;;;25.51;63.76;99552.48;103980;1263;73335;-57
2023/08/23 17:25:25;;;;;;;15.90;2.20;;;;;;;25.44;63.53;99554.30;104286;1260;69104;-57
2023/08/23 17:27:58;;;;;;;5.20;2.20;;;;;;;25.36;61.68;99558.52;104017;1269;72906;-58
2023/08/23 17:30:26;;;;;;;7.80;2.20;;;;;;;25.29;61.79;99557.69;104297;1257;60168;-58
2023/08/23 17:32:54;;;;;;;;;;;;;;;25.24;61.90;99560.52;104016;1258;59746;-57
2023/08/23 17:35:21;;;;;;;2.90;1.80;;;;;;;25.16;61.89;99561.70;104111;1258;72813;-57
2023/08/23 17:37:49;;;;;;;3.20;1.80;;;;;;;25.06;62.79;99562.97;104316;1261;69856;-58
2023/08/23 17:40:17;;;;;;;3.30;1.90;;;;;;;25.00;63.59;99563.92;104120;1257;72387;-57
2023/08/23 17:42:45;;;;;;;5.00;1.90;;;;;;;24.94;63.75;99565.29;104226;1260;59835;-58
2023/08/23 17:45:14;;;;;;;6.10;2.00;;;;;;;24.87;64.65;99566.51;104095;1263;60758;-58
2023/08/23 17:47:41;;;;;;;6.70;2.00;;;;;;;24.81;66.20;99569.44;104141;1263;71818;-58
2023/08/23 17:50:12;;;;;;;;;;;;;;;24.66;66.32;99559.59;104137;1263;68741;-58
2023/08/23 17:52:40;;;;;;;5.20;2.00;;;;;;;24.65;66.88;99575.82;104297;1267;73313;-58
2023/08/23 17:55:08;;;;;;;;;;;;;;;24.54;67.44;99578.53;104129;1257;59862;-58
2023/08/23 17:57:36;;;;;;;4.20;1.90;;;;;;;24.45;67.15;99579.42;104496;1257;59826;-62
2023/08/23 18:00:04;;;;;;;3.90;1.60;;;;;;;24.35;68.40;99583.67;104170;1257;72131;-61
2023/08/23 18:02:39;;;;;;;3.80;1.80;;;;;;;24.31;69.15;99585.11;104071;1273;69212;-58
2023/08/23 18:05:07;;;;;;;3.10;1.60;;;;;;;24.27;70.06;99588.98;104263;1256;72298;-59
2023/08/23 18:07:35;;;;;;;5.20;2.00;;;;;;;24.25;71.18;99586.48;104047;1263;59893;-58
2023/08/23 18:10:06;;;;;;;4.70;2.60;;;;;;;24.23;72.31;99584.68;104195;1260;59860;-59
2023/08/23 18:12:34;;;;;;;6.00;2.30;;;;;;;24.19;73.09;99583.01;104133;1261;71951;-59
2023/08/23 18:15:03;;;;;;;3.00;2.40;;;;;;;24.12;73.31;99580.44;104123;1257;69178;-60
2023/08/23 18:17:30;;;;;;;3.70;2.40;;;;;;;24.06;73.68;99587.28;104404;1260;72360;-60
2023/08/23 18:19:58;;;;;;;;;;;;;;;23.98;73.58;99591.27;104409;1252;59839;-60
2023/08/23 18:22:26;;;;;;;;;;;;;;;23.90;73.78;99593.17;104241;1257;60172;-59
2023/08/23 18:24:53;;;;;;;;;;;;;;;23.80;74.54;99598.61;104358;1274;72836;-60
2023/08/23 18:27:22;;;;;;;5.20;2.50;;;;;;;23.69;75.20;99598.02;104358;1256;69181;-59
2023/08/23 18:29:50;;;;;;;5.50;3.20;;;;;;;23.62;75.34;99608.38;108560;1254;72929;-58
2023/08/23 18:32:17;;;;;;;;;;;;;;;23.55;76.77;99610.34;108553;1253;59757;-58
2023/08/23 18:34:45;;;;;;;4.80;3.50;;;;;;;23.47;79.22;99612.58;108601;1251;59497;-58
2023/08/23 18:37:14;;;;;;;6.20;4.40;;;;;;;23.40;79.73;99613.29;108648;1251;73113;-58
2023/08/23 18:39:41;;;;;;;6.60;4.30;;;;;;;23.33;81.70;99610.36;108663;1251;69212;-59
2023/08/23 18:42:09;;;;;;;8.10;4.00;;;;;;;23.27;83.50;99615.75;108654;1251;72484;-58
2023/08/23 18:44:37;;;;;;;5.20;4.00;;;;;;;23.22;84.56;99619.06;108624;1250;59756;-59
2023/08/23 18:47:06;;;;;;;10.70;3.80;;;;;;;23.18;86.17;99622.56;108570;1252;59660;-59
2023/08/23 18:49:34;;;;;;;10.80;3.80;;;;;;;23.12;86.56;99626.98;108561;1253;73286;-59
2023/08/23 18:52:02;;;;;;;5.90;3.80;;;;;;;23.07;86.59;99629.63;108559;1252;69186;-60
2023/08/23 18:54:29;;;;;;;6.50;3.60;;;;;;;23.02;88.05;99631.20;108567;1253;71875;-59
2023/08/23 18:56:57;;;;;;;9.70;4.40;;;;;;;22.98;89.83;99634.98;108428;1252;60088;-59
2023/08/23 18:59:25;;;;;;;5.70;3.60;;;;;;;22.93;91.63;99637.48;108380;1253;59720;-59
2023/08/23 19:01:52;;;;;;;4.60;3.90;;;;;;;22.88;92.65;99633.01;108418;1253;72820;-59
2023/08/23 19:04:20;;;;;;;6.00;3.60;;;;;;;22.83;92.00;99633.36;108415;1253;69145;-59
2023/08/23 19:06:48;;;;;;;3.90;3.10;;;;;;;22.77;92.43;99635.52;108389;1253;73441;-60
2023/08/23 19:09:15;;;;;;;;;;;;;;;22.71;93.80;99635.64;108436;1252;59802;-60
2023/08/23 19:11:43;;;;;;;;;;;;;;;22.63;95.02;99634.30;108572;1251;58569;-60
2023/08/23 19:14:15;;;;;;;8.20;3.30;;;;;;;22.56;95.42;99635.61;108660;1251;72872;-62
2023/08/23 19:16:43;;;;;;;6.40;3.40;;;;;;;22.52;95.22;99639.00;108654;1252;69193;-62
2023/08/23 19:19:13;;;;;;;9.10;3.50;;;;;;;22.48;96.46;99642.95;108536;1253;72415;-61
2023/08/23 19:21:43;;;;;;;6.40;3.30;;;;;;;22.46;96.81;99644.98;108542;1251;59776;-61
2023/08/23 19:24:10;;;;;;;5.70;3.30;;;;;;;22.43;97.66;99641.98;108644;1251;60042;-61
2023/08/23 19:26:38;;;;;;;4.80;3.50;;;;;;;22.40;98.71;99643.24;108723;1251;72068;-60
2023/08/23 19:29:06;;;;;;;6.20;3.50;;;;;;;22.37;98.92;99646.00;108583;1252;69396;-61
2023/08/23 19:31:34;;;;;;;4.80;3.70;;;;;;;22.33;98.56;99648.67;108514;1251;72863;-61
2023/08/23 19:34:02;;;;;;;6.70;3.50;;;;;;;22.28;99.20;99651.41;108640;1253;59690;-61
2023/08/23 19:36:34;;;;;;;4.20;3.30;;;;;;;22.22;99.82;99651.58;108633;1251;59867;-61
2023/08/23 19:39:03;;;;;;;9.00;3.70;;;;;;;22.16;99.86;99653.58;108625;1252;71960;-62
2023/08/23 19:41:31;;;;;;;6.30;3.80;;;;;;;22.11;100.00;99656.14;108670;1250;69273;-61
2023/08/23 19:43:58;;;;;;;5.70;3.50;;;;;;;22.06;100.00;99654.86;108614;1251;73302;-61
2023/08/23 19:46:26;;;;;;;7.50;3.60;;;;;;;22.02;100.00;99657.30;108629;1251;59767;-61
2023/08/23 19:48:55;;;;;;;4.70;3.80;;;;;;;22.00;100.00;99658.98;108642;1251;59637;-62
2023/08/23 19:51:22;;;;;;;6.30;3.20;;;;;;;21.98;100.00;99659.49;108630;1251;74488;-61
2023/08/23 19:53:50;;;;;;;3.70;3.30;;;;;;;21.93;100.00;99660.46;108621;1251;69208;-62
2023/08/23 19:56:18;;;;;;;5.80;3.20;;;;;;;21.89;100.00;99665.47;108580;1252;72486;-62
2023/08/23 19:58:45;;;;;;;7.30;3.00;;;;;;;21.86;100.00;99665.92;108516;1253;60780;-62
2023/08/23 20:01:13;;;;;;;4.70;3.10;;;;;;;21.81;100.00;99665.80;108426;1251;59667;-62
2023/08/23 20:03:41;;;;;;;11.10;3.40;;;;;;;21.76;100.00;99671.39;108485;1251;73539;-59
2023/08/23 20:06:09;;;;;;;14.00;3.70;;;;;;;21.71;100.00;99672.28;108500;1253;69206;-61
2023/08/23 20:08:39;;;;;;;23.40;4.00;;;;;;;21.66;100.00;99673.91;108564;1253;72931;-61
2023/08/23 20:11:06;;;;;;;9.00;2.90;;;;;;;21.61;100.00;99671.16;108514;1253;59862;-61
2023/08/23 20:13:35;;;;;;;3.00;2.60;;;;;;;21.55;100.00;99669.55;108580;1251;60727;-61
2023/08/23 20:16:02;;;;;;;4.50;2.80;;;;;;;21.51;100.00;99676.66;108608;1252;73759;-62
2023/08/23 20:18:30;;;;;;;4.20;2.90;;;;;;;21.47;100.00;99677.07;108435;1252;69321;-61
2023/08/23 20:20:58;;;;;;;3.70;2.80;;;;;;;21.46;100.00;99679.82;108564;1253;72688;-61
2023/08/23 20:23:26;;;;;;;4.70;2.70;;;;;;;21.42;100.00;99677.84;108511;1253;59762;-61
2023/08/23 20:25:54;;;;;;;4.00;3.40;;;;;;;21.37;100.00;99680.33;108611;1251;60697;-62
2023/08/23 20:28:22;;;;;;;3.70;3.10;;;;;;;21.34;100.00;99682.05;108656;1251;74282;-62
2023/08/23 20:30:50;;;;;;;;;;;;;;;21.31;100.00;99687.84;108660;1251;69125;-61
2023/08/23 20:33:18;;;;;;;4.60;2.70;;;;;;;21.27;100.00;99684.61;108630;1252;71062;-60
2023/08/23 20:35:46;;;;;;;;;;;;;;;21.24;100.00;99684.56;108566;1253;59182;-61
2023/08/23 20:38:13;;;;;;;7.90;3.40;;;;;;;21.20;100.00;99687.50;108513;1253;59998;-60
2023/08/23 20:40:41;;;;;;;4.20;3.20;;;;;;;21.16;100.00;99686.77;108409;1256;73646;-61
2023/08/23 20:43:08;;;;;;;3.80;3.50;;;;;;;21.14;100.00;99690.34;108394;1252;69061;-60
2023/08/23 20:45:39;;;;;;;6.40;3.80;;;;;;;21.12;100.00;99692.52;108545;1253;71457;-60
2023/08/23 20:48:17;;;;;;;5.90;3.70;;;;;;;21.10;100.00;99685.19;108509;1252;59798;-60
2023/08/23 20:50:45;;;;;;;4.80;3.50;;;;;;;21.06;100.00;99684.66;108560;1252;58919;-60
2023/08/23 20:53:12;;;;;;;5.60;3.20;;;;;;;21.04;100.00;99683.44;108538;1253;72760;-60
2023/08/23 20:55:40;;;;;;;4.60;3.50;;;;;;;21.00;100.00;99681.94;108523;1253;70006;-60
2023/08/23 20:58:08;;;;;;;6.60;3.20;;;;;;;20.97;100.00;99683.77;108413;1254;72295;-60
2023/08/23 21:00:37;;;;;;;;;;;;;;;20.95;100.00;99690.05;108372;1253;60350;-60
2023/08/23 21:03:04;;;;;;;4.70;3.50;;;;;;;20.90;100.00;99693.31;108384;1252;60460;-60
2023/08/23 21:05:32;;;;;;;9.60;3.10;;;;;;;20.86;100.00;99692.98;108322;1253;72848;-60
2023/08/23 21:07:59;;;;;;;9.80;3.50;;;;;;;20.85;100.00;99694.86;108378;1253;70192;-60
2023/08/23 21:10:27;;;;;;;;;;;;;;;20.82;100.00;99695.61;108386;1254;71706;-60
2023/08/23 21:12:55;;;;;;;5.50;3.30;;;;;;;20.77;100.00;99695.09;108463;1253;60143;-61
2023/08/23 21:15:22;;;;;;;5.10;2.70;;;;;;;20.72;100.00;99694.26;108543;1252;60148;-60
2023/08/23 21:17:50;;;;;;;6.80;3.40;;;;;;;20.69;100.00;99691.38;108536;1252;73254;-61
2023/08/23 21:20:20;;;;;;;5.50;3.40;;;;;;;20.65;100.00;99687.77;108490;1253;69417;-61
2023/08/23 21:22:47;;;;;;;3.20;2.90;;;;;;;20.61;100.00;99691.30;108478;1253;72856;-59
2023/08/23 21:25:15;;;;;;;3.20;2.90;;;;;;;20.56;100.00;99692.36;108474;1253;59829;-62
2023/08/23 21:27:42;;;;;;;4.50;3.20;;;;;;;20.54;100.00;99695.61;108471;1254;59843;-61
2023/08/23 21:30:13;;;;;;;7.50;3.50;;;;;;;20.50;100.00;99697.17;108412;1254;72642;-62
2023/08/23 21:32:41;;;;;;;4.60;3.00;;;;;;;20.47;100.00;99701.52;108601;1252;69037;-61
2023/08/23 21:35:08;;;;;;;;;;;;;;;20.44;100.00;99699.44;108654;1251;73337;-62
2023/08/23 21:37:36;;;;;;;5.10;2.70;;;;;;;20.40;100.00;99701.17;108612;1253;60142;-63
2023/08/23 21:40:04;;;;;;;4.60;2.60;;;;;;;20.38;100.00;99701.02;108583;1252;60126;-62
2023/08/23 21:42:32;;;;;;;6.20;3.00;;;;;;;20.38;100.00;99705.45;108574;1252;73565;-62
2023/08/23 21:45:01;;;;;;;5.80;3.40;;;;;;;20.38;100.00;99704.77;108606;1252;69455;-61
2023/08/23 21:47:29;;;;;;;4.60;3.20;;;;;;;20.38;100.00;99706.88;108577;1253;72417;-61
2023/08/23 21:49:56;;;;;;;;;;;;;;;20.38;100.00;99707.94;108564;1251;60280;-60
2023/08/23 21:52:24;;;;;;;6.70;3.10;;;;;;;20.34;100.00;99704.91;108732;1251;59788;-60
2023/08/23 21:54:52;;;;;;;7.50;3.50;;;;;;;20.31;100.00;99707.50;108627;1252;73356;-60
2023/08/23 21:57:20;;;;;;;;;;;;;;;20.28;100.00;99707.70;108566;1252;69132;-61
2023/08/23 21:59:48;;;;;;;;;;;;;;;20.25;100.00;99707.98;108542;1253;72995;-60
2023/08/23 22:02:15;;;;;;;4.20;3.40;;;;;;;20.20;100.00;99712.07;108590;1251;59770;-60
2023/08/23 22:04:43;;;;;;;8.50;3.10;;;;;;;20.15;100.00;99708.39;108554;1253;59698;-61
2023/08/23 22:07:11;;;;;;;5.40;3.10;;;;;;;20.14;100.00;99713.15;108615;1252;73704;-61
2023/08/23 22:09:39;;;;;;;5.10;3.30;;;;;;;20.11;100.00;99713.73;108568;1253;68290;-61
2023/08/23 22:12:06;;;;;;;;;;;;;;;20.11;100.00;99713.86;108549;1254;73405;-61
2023/08/23 22:14:35;;;;;;;6.10;3.50;;;;;;;20.09;100.00;99712.14;108559;1253;58605;-61
2023/08/23 22:17:05;;;;;;;4.70;3.40;;;;;;;20.06;100.00;99714.52;108581;1252;59701;-61
2023/08/23 22:19:33;;;;;;;4.80;3.50;;;;;;;20.03;100.00;99714.02;108576;1254;73555;-61
2023/08/23 22:22:01;;;;;;;5.20;3.30;;;;;;;20.00;100.00;99717.30;108660;1251;70079;-61
2023/08/23 22:24:28;;;;;;;3.40;3.10;;;;;;;19.96;100.00;99716.02;108564;1253;72908;-61
2023/08/23 22:26:56;;;;;;;5.10;3.00;;;;;;;19.94;100.00;99712.46;108644;1252;59789;-61
2023/08/23 22:29:23;;;;;;;4.30;3.20;;;;;;;19.92;100.00;99714.58;108663;1251;59672;-61
2023/08/23 22:31:51;;;;;;;5.50;3.30;;;;;;;19.90;100.00;99716.50;108612;1251;73681;-61
2023/08/23 22:34:19;;;;;;;;;;;;;;;19.90;100.00;99711.49;108649;1251;69052;-61
2023/08/23 22:36:48;;;;;;;4.50;3.00;;;;;;;19.90;100.00;99713.61;108659;1251;72976;-61
2023/08/23 22:39:16;;;;;;;5.40;3.30;;;;;;;19.91;100.00;99714.42;108660;1250;59804;-61
2023/08/23 22:41:45;;;;;;;4.90;2.90;;;;;;;19.92;100.00;99713.09;108722;1255;58682;-61
2023/08/23 22:44:12;;;;;;;3.60;2.90;;;;;;;19.96;100.00;99711.76;108648;1256;74038;-61
2023/08/23 22:46:42;;;;;;;3.90;3.00;;;;;;;19.94;100.00;99704.61;108613;1251;70575;-61
2023/08/23 22:49:10;;;;;;;5.80;3.20;;;;;;;19.91;100.00;99709.13;108594;1251;73335;-61
2023/08/23 22:51:39;;;;;;;3.20;2.70;;;;;;;19.89;100.00;99711.75;108596;1251;61769;-61
2023/08/23 22:54:06;;;;;;;4.10;3.10;;;;;;;19.82;100.00;99709.80;108653;1256;59004;-61
2023/08/23 22:56:34;;;;;;;4.30;3.30;;;;;;;19.77;100.00;99709.22;108662;1250;73677;-61
2023/08/23 22:59:01;;;;;;;7.20;3.20;;;;;;;19.72;100.00;99707.61;108600;1250;69489;-61
2023/08/23 23:01:29;;;;;;;4.60;2.90;;;;;;;19.68;100.00;99705.58;108501;1252;72287;-61
2023/08/23 23:03:57;;;;;;;5.40;3.00;;;;;;;19.66;100.00;99701.63;108432;1252;62368;-60
2023/08/23 23:06:24;;;;;;;5.40;3.00;;;;;;;19.63;100.00;99707.77;108486;1256;59771;-59
2023/08/23 23:08:52;;;;;;;3.10;2.70;;;;;;;19.59;100.00;99706.79;108410;1251;73606;-61
2023/08/23 23:11:20;;;;;;;3.90;2.80;;;;;;;19.58;100.00;99704.74;108458;1251;68500;-60
2023/08/23 23:13:47;;;;;;;6.70;3.40;;;;;;;19.57;100.00;99704.68;108453;1251;72895;-61
2023/08/23 23:16:15;;;;;;;3.60;2.70;;;;;;;19.54;100.00;99705.96;108591;1251;61471;-60
2023/08/23 23:18:42;;;;;;;4.90;2.90;;;;;;;19.50;100.00;99704.88;108647;1251;60065;-61
2023/08/23 23:21:10;;;;;;;5.10;3.10;;;;;;;19.47;100.00;99701.52;108645;1251;74565;-61
2023/08/23 23:23:38;;;;;;;4.50;2.50;;;;;;;19.43;100.00;99703.26;108623;1250;69078;-61
2023/08/23 23:26:05;;;;;;;5.00;2.70;;;;;;;19.41;100.00;99706.11;108661;1251;73360;-61
2023/08/23 23:28:33;;;;;;;3.60;3.20;;;;;;;19.39;100.00;99701.06;108605;1253;62375;-60
2023/08/23 23:31:06;;;;;;;4.60;3.10;;;;;;;19.40;100.00;99706.73;108585;1251;59687;-61
2023/08/23 23:33:33;;;;;;;6.10;3.00;;;;;;;19.39;100.00;99707.11;108578;1251;73823;-61
2023/08/23 23:36:03;;;;;;;5.30;3.10;;;;;;;19.39;100.00;99711.95;108631;1251;70456;-61
2023/08/23 23:38:31;;;;;;;7.70;2.40;;;;;;;19.38;100.00;99713.11;108622;1251;72457;-61
2023/08/23 23:41:01;;;;;;;7.10;2.90;;;;;;;19.36;100.00;99716.83;108631;1251;61381;-61
2023/08/23 23:43:29;;;;;;;3.80;2.90;;;;;;;19.35;100.00;99717.64;108641;1251;59798;-60
2023/08/23 23:45:56;;;;;;;4.80;2.90;;;;;;;19.32;100.00;99721.20;108547;1252;73649;-61
2023/08/23 23:48:24;;;;;;;3.10;2.70;;;;;;;19.31;100.00;99719.48;108625;1253;69309;-61
2023/08/23 23:50:52;;;;;;;;;;;;;;;19.31;100.00;99717.01;108593;1254;72353;-61
2023/08/23 23:53:20;;;;;;;10.30;2.60;;;;;;;19.35;100.00;99719.22;108590;1251;61407;-60
2023/08/23 23:55:47;;;;;;;;;;;;;;;19.38;100.00;99721.77;108630;1251;60643;-61
2023/08/23 23:58:15;;;;;;;5.50;2.60;;;;;;;19.41;100.00;99720.85;108630;1251;73602;-61
